Time;durP1;ratioP1;P1;durP2;ratioP2;P2;SDS_P1;SDS_P2;PMS_P1;PMS_P2;Temp;Humidity;BMP_temperature;BMP_pressure;BME280_temperature;BME280_humidity;BME280_pressure;Samples;Min_cycle;Max_cycle;Signal;HPM_P1;HPM_P2
2022/02/17 00:02:16;;;;;;;;;;;;;;;-0.02;100.00;98514.58;1724072;83;20101;-70
2022/02/17 00:04:45;;;;;;;;;;;;;;;-0.01;100.00;98505.94;1723880;83;20172;-70
2022/02/17 00:07:16;;;;;;;;;;;;;;;0.00;100.00;98497.55;1723879;83;20090;-70
2022/02/17 00:09:48;;;;;;;;;;;;;;;0.02;100.00;98492.41;1723854;83;20120;-71
2022/02/17 00:12:15;;;;;;;;;;;;;;;0.03;100.00;98496.19;1723293;83;22033;-70
2022/02/17 00:14:45;;;;;;;;;;;;;;;0.04;100.00;98490.25;1723609;83;20101;-70
2022/02/17 00:17:14;;;;;;;;;;;;;;;0.06;100.00;98488.90;1723161;83;20113;-70
2022/02/17 00:19:48;;;;;;;;;;;;;;;0.07;100.00;98487.82;1723128;83;20176;-70
2022/02/17 00:22:15;;;;;;;;;;;;;;;0.09;100.00;98475.41;1697325;83;20117;-69
2022/02/17 00:24:49;;;;;;;;;;;;;;;0.09;100.00;98482.95;1723148;83;21282;-69
2022/02/17 00:27:20;;;;;;;;;;;;;;;0.11;100.00;98478.09;1696924;83;20447;-69
2022/02/17 00:29:50;;;;;;;;;;;;;;;0.10;100.00;98464.34;1723044;83;20097;-69
2022/02/17 00:32:21;;;;;;;;;;;;;;;0.10;100.00;98457.59;1697418;83;20667;-69
2022/02/17 00:34:53;;;;;;;;;;;;;;;0.10;100.00;98453.55;1723085;83;20081;-69
2022/02/17 00:37:23;;;;;;;;;;;;;;;0.11;100.00;98451.11;1723583;83;21316;-69
2022/02/17 00:39:53;;;;;;;;;;;;;;;0.15;100.00;98450.83;1696494;83;20089;-70
2022/02/17 00:44:52;;;;;;;;;;;;;;;0.24;100.00;98437.58;1695341;83;20432;-70
2022/02/17 00:47:19;;;;;;;;;;;;;;;0.26;100.00;98428.12;1723956;83;20124;-69
2022/02/17 00:49:47;;;;;;;;;;;;;;;0.28;100.00;98422.45;1724004;83;21098;-69
2022/02/17 00:52:15;;;;;;;;;;;;;;;0.27;100.00;98416.78;1716843;83;20144;-69
2022/02/17 00:54:52;;;;;;;;;;;;;;;0.27;100.00;98413.54;1723941;83;20120;-71
2022/02/17 00:57:15;;;;;;;;;;;;;;;0.29;100.00;98402.47;1722837;83;20424;-70
2022/02/17 00:59:46;;;;;;;;;;;;;;;0.31;100.00;98398.41;1724429;83;20444;-70
2022/02/17 01:02:17;;;;;;;;;;;;;;;0.35;100.00;98391.11;1697527;83;21421;-70
2022/02/17 01:04:52;;;;;;;;;;;;;;;0.38;100.00;98390.02;1696381;83;20145;-71
2022/02/17 01:07:21;;;;;;;;;;;;;;;0.39;100.00;98384.87;1697340;83;20444;-72
2022/02/17 01:09:54;;;;;;;;;;;;;;;0.39;100.00;98371.92;1723509;83;20148;-69
2022/02/17 01:12:22;;;;;;;;;;;;;;;0.39;100.00;98369.22;1696443;83;20109;-69
2022/02/17 01:14:55;;;;;;;;;;;;;;;0.39;100.00;98359.77;1723644;83;21179;-70
2022/02/17 01:17:23;;;;;;;;;;;;;;;0.38;100.00;98350.87;1723926;83;20097;-70
2022/02/17 01:19:55;;;;;;;;;;;;;;;0.39;100.00;98348.97;1720165;83;20133;-70
2022/02/17 01:22:22;;;;;;;;;;;;;;;0.39;100.00;98346.27;1723363;83;20641;-69
2022/02/17 01:24:53;;;;;;;;;;;;;;;0.37;100.00;98346.55;1723512;83;20084;-69
2022/02/17 01:27:26;;;;;;;;;;;;;;;0.38;100.00;98340.61;1720195;83;20101;-70
2022/02/17 01:29:54;;;;;;;;;;;;;;;0.36;100.00;98344.94;1674634;83;20113;-69
2022/02/17 01:32:26;;;;;;;;;;;;;;;0.36;100.00;98345.48;1723960;83;20121;-69
2022/02/17 01:34:57;;;;;;;;;;;;;;;0.36;100.00;98336.84;1723494;83;20109;-69
2022/02/17 01:37:26;;;;;;;;;;;;;;;0.36;100.00;98327.93;1723702;83;20081;-70
2022/02/17 01:39:55;;;;;;;;;;;;;;;0.36;100.00;98324.69;1723652;83;20105;-68
2022/02/17 01:42:24;;;;;;;;;;;;;;;0.37;100.00;98328.20;1720702;83;20448;-69
2022/02/17 01:44:58;;;;;;;;;;;;;;;0.38;100.00;98317.66;1723227;83;20097;-69
2022/02/17 01:47:29;;;;;;;;;;;;;;;0.38;100.00;98313.61;1723774;83;20447;-70
2022/02/17 01:49:56;;;;;;;;;;;;;;;0.38;100.00;98312.27;1723290;83;20117;-70
2022/02/17 01:52:24;;;;;;;;;;;;;;;0.39;100.00;98305.23;1723984;83;21168;-69
2022/02/17 01:55:02;;;;;;;;;;;;;;;0.41;100.00;98296.86;1722692;83;20448;-69
2022/02/17 01:57:34;;;;;;;;;;;;;;;0.44;100.00;98289.55;1719813;83;20140;-68
2022/02/17 02:00:12;;;;;;;;;;;;;;;0.47;100.00;98287.63;1698006;83;20086;-69
2022/02/17 02:02:46;;;;;;;;;;;;;;;0.49;100.00;98282.22;1724008;83;20084;-69
2022/02/17 02:05:16;;;;;;;;;;;;;;;0.56;100.00;98272.45;1724076;83;21186;-69
2022/02/17 02:07:49;;;;;;;;;;;;;;;0.62;100.00;98265.35;1723835;83;20165;-70
2022/02/17 02:10:30;;;;;;;;;;;;;;;0.69;100.00;98272.33;1697169;83;20077;-70
2022/02/17 02:13:00;;;;;;;;;;;;;;;0.73;100.00;98255.81;1697455;83;20113;-69
2022/02/17 02:15:32;;;;;;;;;;;;;;;0.79;100.00;98257.39;1723205;83;20120;-70
2022/02/17 02:17:59;;;;;;;;;;;;;;;0.84;100.00;98263.55;1722239;83;21199;-70
2022/02/17 02:20:29;;;;;;;;;;;;;;;0.89;100.00;98249.20;1723789;83;20432;-69
2022/02/17 02:22:57;;;;;;;;;;;;;;;0.92;100.00;98247.28;1720226;82;20116;-69
2022/02/17 02:25:25;;;;;;;;;;;;;;;0.96;100.00;98245.63;1724263;83;20089;-69
2022/02/17 02:27:54;;;;;;;;;;;;;;;1.00;100.00;98239.91;1723942;83;20117;-69
2022/02/17 02:30:24;;;;;;;;;;;;;;;1.02;100.00;98228.27;1696860;83;20101;-71
2022/02/17 02:32:50;;;;;;;;;;;;;;;1.02;100.00;98238.27;1723890;83;20084;-71
2022/02/17 02:35:21;;;;;;;;;;;;;;;1.03;100.00;98227.72;1720595;83;20093;-71
2022/02/17 02:37:47;;;;;;;;;;;;;;;1.02;100.00;98229.62;1723086;83;20217;-70
2022/02/17 02:40:17;;;;;;;;;;;;;;;1.02;100.00;98219.36;1722985;83;20452;-70
2022/02/17 02:42:56;;;;;;;;;;;;;;;1.02;100.00;98218.80;1723940;83;21580;-69
2022/02/17 02:45:19;;;;;;;;;;;;;;;1.01;100.00;98209.63;1722822;83;20101;-68
2022/02/17 02:47:52;;;;;;;;;;;;;;;0.99;100.00;98208.02;1720105;83;20084;-68
2022/02/17 02:50:20;;;;;;;;;;;;;;;1.01;100.00;98206.94;1723442;83;20120;-70
2022/02/17 02:52:49;;;;;;;;;;;;;;;1.01;100.00;98206.39;1716686;83;20431;-70
2022/02/17 02:55:19;;;;;;;;;;;;;;;1.02;100.00;98196.38;1723885;83;21555;-68
2022/02/17 02:57:49;;;;;;;;;;;;;;;1.02;100.00;98188.27;1720103;83;20111;-69
2022/02/17 03:00:17;;;;;;;;;;;;;;;1.01;100.00;98181.26;1697072;83;20101;-70
2022/02/17 03:02:45;;;;;;;;;;;;;;;1.02;100.00;98180.17;1723757;83;20252;-69
2022/02/17 03:05:14;;;;;;;;;;;;;;;1.03;100.00;98166.38;1724224;83;20085;-69
2022/02/17 03:07:41;;;;;;;;;;;;;;;1.03;100.00;98166.38;1723941;83;21500;-69
2022/02/17 03:10:14;;;;;;;;;;;;;;;1.04;100.00;98173.39;1723925;83;20435;-69
2022/02/17 03:12:43;;;;;;;;;;;;;;;1.05;100.00;98175.55;1723343;83;20145;-69
2022/02/17 03:15:13;;;;;;;;;;;;;;;1.07;100.00;98170.66;1723886;83;20117;-69
2022/02/17 03:17:39;;;;;;;;;;;;;;;1.07;100.00;98165.25;1723112;82;20476;-69
2022/02/17 03:20:16;;;;;;;;;;;;;;;1.07;100.00;98157.14;1697486;83;21154;-70
2022/02/17 03:22:45;;;;;;;;;;;;;;;1.08;100.00;98152.80;1723832;83;20244;-70
2022/02/17 03:25:22;;;;;;;;;;;;;;;1.10;100.00;98146.56;1724001;83;20101;-69
2022/02/17 03:27:48;;;;;;;;;;;;;;;1.10;100.00;98131.70;1723055;83;20121;-70
2022/02/17 03:30:23;;;;;;;;;;;;;;;1.11;100.00;98133.31;1700182;83;20101;-69
2022/02/17 03:32:52;;;;;;;;;;;;;;;1.11;100.00;98148.17;1723469;83;21223;-70
2022/02/17 03:35:26;;;;;;;;;;;;;;;1.12;100.00;98145.73;1723795;83;20096;-70
2022/02/17 03:37:58;;;;;;;;;;;;;;;1.14;100.00;98144.09;1718666;83;20096;-70
2022/02/17 03:40:30;;;;;;;;;;;;;;;1.13;100.00;98131.13;1722748;83;20093;-70
2022/02/17 03:42:56;;;;;;;;;;;;;;;1.14;100.00;98135.44;1723821;83;20122;-70
2022/02/17 03:45:27;;;;;;;;;;;;;;;1.12;100.00;98123.30;1719000;83;21167;-70
2022/02/17 03:47:57;;;;;;;;;;;;;;;1.12;100.00;98128.16;1717984;82;20433;-70
2022/02/17 03:50:27;;;;;;;;;;;;;;;1.11;100.00;98117.09;1713153;83;20114;-70
2022/02/17 03:52:57;;;;;;;;;;;;;;;1.12;100.00;98116.00;1716444;83;20274;-70
2022/02/17 03:55:30;;;;;;;;;;;;;;;1.12;100.00;98118.70;1717609;83;20121;-70
2022/02/17 03:58:01;;;;;;;;;;;;;;;1.11;100.00;98115.73;1692445;83;20101;-70
2022/02/17 04:00:35;;;;;;;;;;;;;;;1.10;100.00;98111.97;1718265;83;20101;-70
2022/02/17 04:03:01;;;;;;;;;;;;;;;1.08;100.00;98109.56;1718328;83;20132;-69
2022/02/17 04:05:35;;;;;;;;;;;;;;;1.09;100.00;98094.15;1718449;83;20089;-68
2022/02/17 04:08:06;;;;;;;;;;;;;;;1.08;100.00;98095.24;1717070;83;20448;-68
2022/02/17 04:10:39;;;;;;;;;;;;;;;1.06;100.00;98095.53;1718471;83;21561;-68
2022/02/17 04:13:11;;;;;;;;;;;;;;;1.05;100.00;98085.81;1715749;83;20425;-69
2022/02/17 04:15:45;;;;;;;;;;;;;;;1.05;100.00;98083.66;1717684;83;20104;-68
2022/02/17 04:18:17;;;;;;;;;;;;;;;1.04;100.00;98082.85;1718361;83;20632;-68
2022/02/17 04:20:43;;;;;;;;;;;;;;;1.04;100.00;98083.40;1718053;83;20120;-68
2022/02/17 04:23:14;;;;;;;;;;;;;;;1.04;100.00;98073.39;1713896;83;21861;-69
2022/02/17 04:25:48;;;;;;;;;;;;;;;1.04;100.00;98057.73;1717335;83;20118;-69
2022/02/17 04:28:16;;;;;;;;;;;;;;;1.03;100.00;98054.77;1718114;83;20133;-70
2022/02/17 04:30:45;;;;;;;;;;;;;;;1.02;100.00;98046.41;1713260;83;20085;-70
2022/02/17 04:33:13;;;;;;;;;;;;;;;0.98;100.00;98045.62;1718681;83;20101;-68
2022/02/17 04:35:50;;;;;;;;;;;;;;;0.97;100.00;98048.08;1717515;83;21869;-69
2022/02/17 04:38:21;;;;;;;;;;;;;;;0.97;100.00;98041.32;1718491;83;20085;-69
2022/02/17 04:43:39;;;;;;;;;;;;;;;0.99;100.00;98046.44;1706434;83;20154;-69
2022/02/17 04:46:08;;;;;;;;;;;;;;;1.00;100.00;98033.18;1722735;83;20093;-69
2022/02/17 04:48:37;;;;;;;;;;;;;;;1.01;100.00;98033.44;1723995;83;21167;-69
2022/02/17 04:51:08;;;;;;;;;;;;;;;1.01;100.00;98021.28;1723502;83;20504;-69
2022/02/17 04:53:37;;;;;;;;;;;;;;;1.00;100.00;98019.67;1724030;83;20113;-69
2022/02/17 04:56:06;;;;;;;;;;;;;;;0.99;100.00;98014.01;1719232;83;20428;-70
2022/02/17 04:58:37;;;;;;;;;;;;;;;0.98;100.00;98012.40;1721161;83;20453;-69
2022/02/17 05:01:11;;;;;;;;;;;;;;;0.97;100.00;98008.89;1724013;83;21114;-69
2022/02/17 05:03:50;;;;;;;;;;;;;;;0.96;100.00;97993.77;1635537;87;20147;-69
2022/02/17 05:06:23;;;;;;;;;;;;;;;0.96;100.00;97983.52;1727617;83;20144;-69
2022/02/17 05:08:54;;;;;;;;;;;;;;;0.94;100.00;97979.75;1724399;83;20424;-69
2022/02/17 05:11:22;;;;;;;;;;;;;;;0.91;100.00;97971.42;1766233;80;20084;-69
2022/02/17 05:13:56;;;;;;;;;;;;;;;0.91;100.00;97970.07;1788794;80;21987;-69
2022/02/17 05:16:27;;;;;;;;;;;;;;;0.90;100.00;97971.16;1788962;80;20096;-70
2022/02/17 05:18:59;;;;;;;;;;;;;;;0.91;100.00;97963.31;1788744;80;20119;-70
2022/02/17 05:21:43;;;;;;;;;;;;;;;0.91;100.00;97957.91;1786546;80;20132;-70
2022/02/17 05:24:21;;;;;;;;;;;;;;;0.89;100.00;97956.85;1787880;80;20115;-69
2022/02/17 05:27:05;;;;;;;;;;;;;;;0.90;100.00;97960.36;1746207;80;21545;-69
2022/02/17 05:29:35;;;;;;;;;;;;;;;0.90;100.00;97954.41;1788565;80;20443;-71
2022/02/17 05:32:10;;;;;;;;;;;;;;;0.91;100.00;97957.91;1775287;80;20439;-70
2022/02/17 05:34:53;;;;;;;;;;;;;;;0.91;100.00;97953.31;1788811;80;20473;-70
2022/02/17 05:37:28;;;;;;;;;;;;;;;0.91;100.00;97952.52;1788025;80;20136;-69
2022/02/17 05:39:55;;;;;;;;;;;;;;;0.92;100.00;97957.63;1720050;80;21181;-70
2022/02/17 05:42:26;;;;;;;;;;;;;;;0.93;100.00;97950.32;1787017;80;20108;-68
2022/02/17 05:44:54;;;;;;;;;;;;;;;0.93;100.00;97948.97;1779906;80;20099;-69
2022/02/17 05:47:27;;;;;;;;;;;;;;;0.93;100.00;97949.77;1760850;81;20098;-69
2022/02/17 05:49:55;;;;;;;;;;;;;;;0.95;100.00;97946.78;1760386;81;20122;-71
2022/02/17 05:52:25;;;;;;;;;;;;;;;0.95;100.00;97944.88;1761543;81;21540;-69
2022/02/17 05:54:53;;;;;;;;;;;;;;;0.97;100.00;97941.89;1762354;81;20121;-70
2022/02/17 05:57:30;;;;;;;;;;;;;;;0.96;100.00;97941.09;1762492;81;20191;-69
2022/02/17 06:00:02;;;;;;;;;;;;;;;0.98;100.00;97929.44;1743465;81;20112;-69
2022/02/17 06:02:30;;;;;;;;;;;;;;;0.99;100.00;97911.33;1762017;81;20092;-68
2022/02/17 06:04:58;;;;;;;;;;;;;;;0.97;100.00;97915.67;1762305;81;21122;-68
2022/02/17 06:07:29;;;;;;;;;;;;;;;0.99;100.00;97916.18;1741591;81;20085;-68
2022/02/17 06:09:58;;;;;;;;;;;;;;;0.99;100.00;97914.83;1762314;80;20120;-68
2022/02/17 06:12:26;;;;;;;;;;;;;;;1.00;100.00;97907.53;1762090;80;20440;-68
2022/02/17 06:15:08;;;;;;;;;;;;;;;1.01;100.00;97911.03;1762785;80;20080;-68
2022/02/17 06:17:27;;;;;;;;;;;;;;;1.01;100.00;97896.97;1759447;81;21156;-68
2022/02/17 06:19:56;;;;;;;;;;;;;;;1.03;100.00;97892.63;1762187;81;20068;-72
2022/02/17 06:22:26;;;;;;;;;;;;;;;1.03;100.00;97882.63;1759995;81;20118;-68
2022/02/17 06:24:53;;;;;;;;;;;;;;;1.05;100.00;97887.73;1761990;81;20084;-73
2022/02/17 06:27:21;;;;;;;;;;;;;;;1.06;100.00;97878.53;1736091;81;20103;-71
2022/02/17 06:29:50;;;;;;;;;;;;;;;1.07;100.00;97879.59;1760981;81;21194;-69
2022/02/17 06:32:26;;;;;;;;;;;;;;;1.09;100.00;97879.30;1762917;81;20138;-69
2022/02/17 06:34:54;;;;;;;;;;;;;;;1.10;100.00;97873.59;1760667;81;20157;-75
2022/02/17 06:37:31;;;;;;;;;;;;;;;1.13;100.00;97867.60;1732516;81;20080;-72
2022/02/17 06:39:59;;;;;;;;;;;;;;;1.17;100.00;97864.53;1762025;80;20092;-71
2022/02/17 06:42:30;;;;;;;;;;;;;;;1.22;100.00;97869.86;1762628;81;21085;-69
2022/02/17 06:45:02;;;;;;;;;;;;;;;1.25;100.00;97860.35;1763793;80;20072;-70
2022/02/17 06:47:31;;;;;;;;;;;;;;;1.30;100.00;97858.91;1793816;80;20221;-69
2022/02/17 06:49:57;;;;;;;;;;;;;;;1.33;100.00;97852.92;1793509;80;20078;-68
2022/02/17 06:52:25;;;;;;;;;;;;;;;1.38;100.00;97852.03;1791156;80;20172;-69
2022/02/17 06:54:55;;;;;;;;;;;;;;;1.41;100.00;97843.32;1786956;80;20105;-69
2022/02/17 06:57:24;;;;;;;;;;;;;;;1.44;100.00;97831.91;1790135;80;20475;-69
2022/02/17 06:59:50;;;;;;;;;;;;;;;1.49;100.00;97831.82;1746950;81;20468;-69
2022/02/17 07:02:26;;;;;;;;;;;;;;;1.51;100.00;97825.56;1749587;82;20129;-68
2022/02/17 07:04:56;;;;;;;;;;;;;;;1.54;100.00;97820.36;1745978;81;20127;-68
2022/02/17 07:07:24;;;;;;;;;;;;;;;1.60;100.00;97808.90;1755089;81;21146;-68
2022/02/17 07:09:55;;;;;;;;;;;;;;;1.63;100.00;97805.05;1755932;81;20074;-67
2022/02/17 07:12:27;;;;;;;;;;;;;;;1.66;100.00;97791.48;1735096;81;20120;-67
2022/02/17 07:14:58;;;;;;;;;;;;;;;1.69;100.00;97775.20;1728104;82;20151;-67
2022/02/17 07:17:30;;;;;;;;;;;;;;;1.74;100.00;97782.63;1680607;84;38820;-69
2022/02/17 07:19:58;;;;;;;;;;;;;;;1.77;100.00;97771.20;1708758;84;20118;-69
2022/02/17 07:22:31;;;;;;;;;;;;;;;1.79;100.00;97771.70;1680596;84;20098;-86
2022/02/17 07:25:03;;;;;;;;;;;;;;;1.81;100.00;97767.34;1706620;84;20150;-78
2022/02/17 07:27:31;;;;;;;;;;;;;;;1.84;100.00;97760.78;1744013;81;20437;-74
2022/02/17 07:30:00;;;;;;;;;;;;;;;1.91;100.00;97740.08;1738656;82;20112;-72
2022/02/17 07:32:31;;;;;;;;;;;;;;;2.00;100.00;97736.91;1747900;81;21224;-72
2022/02/17 07:34:59;;;;;;;;;;;;;;;2.08;100.00;97729.42;1740022;81;20159;-79
2022/02/17 07:37:25;;;;;;;;;;;;;;;2.15;100.00;97730.36;1713055;83;20087;-72
2022/02/17 07:39:55;;;;;;;;;;;;;;;2.20;100.00;97724.84;1708660;84;20128;-73
2022/02/17 07:42:24;;;;;;;;;;;;;;;2.29;100.00;97726.52;1717697;82;20124;-70
2022/02/17 07:44:56;;;;;;;;;;;;;;;2.38;100.00;97731.97;1711189;82;21194;-73
2022/02/17 07:47:21;;;;;;;;;;;;;;;2.47;100.00;97721.20;1703776;84;20126;-72
2022/02/17 07:49:54;;;;;;;;;;;;;;;2.54;100.00;97727.80;1672991;84;20468;-71
2022/02/17 07:52:19;;;;;;;;;;;;;;;2.60;100.00;97730.63;1725819;83;20117;-77
2022/02/17 07:54:48;;;;;;;;;;;;;;;2.69;100.00;97736.12;1732605;83;20441;-75
2022/02/17 07:57:16;;;;;;;;;;;;;;;2.84;100.00;97745.78;1732801;82;21629;-73
2022/02/17 07:59:45;;;;;;;;;;;;;;;3.15;100.00;97743.08;1732537;83;20106;-70
2022/02/17 08:02:13;;;;;;;;;;;;;;;3.52;100.00;97732.30;1731561;81;20126;-70
2022/02/17 08:04:47;;;;;;;;;;;;;;;3.91;100.00;97721.41;1732370;83;20103;-75
2022/02/17 08:07:12;;;;;;;;;;;;;;;4.28;100.00;97699.62;1709370;83;20095;-69
2022/02/17 08:09:47;;;;;;;;;;;;;;;4.41;100.00;97699.22;1732621;82;21172;-71
2022/02/17 08:12:18;;;;;;;;;;;;;;;4.59;100.00;97688.58;1732557;83;20107;-77
2022/02/17 08:14:49;;;;;;;;;;;;;;;4.76;100.00;97681.50;1734874;82;20837;-76
2022/02/17 08:17:18;;;;;;;;;;;;;;;4.69;100.00;97666.23;1732753;82;20414;-73
2022/02/17 08:19:45;;;;;;;;;;;;;;;4.62;100.00;97665.40;1732638;83;20116;-80
2022/02/17 08:22:13;;;;;;;;;;;;;;;4.69;100.00;97660.24;1732674;82;21051;-79
2022/02/17 08:24:49;;;;;;;;;;;;;;;4.76;100.00;97648.88;1732591;83;20426;-73
2022/02/17 08:27:17;;;;;;;;;;;;;;;4.80;100.00;97645.19;1731925;82;20461;-77
2022/02/17 08:29:46;;;;;;;;;;;;;;;4.81;100.00;97629.67;1732647;83;20516;-75
2022/02/17 08:32:20;;;;;;;;;;;;;;;4.87;100.00;97631.89;1710884;83;20119;-70
2022/02/17 08:34:48;;;;;;;;;;;;;;;5.05;100.00;97631.28;1731539;82;21242;-72
2022/02/17 08:37:20;;;;;;;;;;;;;;;5.27;100.00;97628.27;1711290;82;20427;-72
2022/02/17 08:39:47;;;;;;;;;;;;;;;5.53;99.66;97630.87;1732642;82;20102;-74
2022/02/17 08:42:15;;;;;;;;;;;;;;;5.75;97.89;97626.25;1732917;83;20438;-70
2022/02/17 08:44:44;;;;;;;;;;;;;;;5.84;97.46;97623.68;1732198;82;20073;-71
2022/02/17 08:47:18;;;;;;;;;;;;;;;5.88;96.39;97617.01;1708755;83;20123;-71
2022/02/17 08:49:48;;;;;;;;;;;;;;;5.87;93.79;97618.93;1732682;81;20442;-72
2022/02/17 08:52:21;;;;;;;;;;;;;;;5.79;92.83;97609.46;1687688;83;20091;-72
2022/02/17 08:54:49;;;;;;;;;;;;;;;5.69;91.73;97599.79;1712470;83;20708;-72
2022/02/17 08:57:18;;;;;;;;;;;;;;;5.63;93.10;97602.47;1709938;83;20087;-71
2022/02/17 08:59:47;;;;;;;;;;;;;;;5.59;91.91;97596.89;1737366;81;21142;-71
2022/02/17 09:02:15;;;;;;;;;;;;;;;5.57;91.98;97577.93;1737370;81;20121;-77
2022/02/17 09:04:45;;;;;;;;;;;;;;;5.58;92.50;97573.52;1738143;81;20138;-74
2022/02/17 09:07:18;;;;;;;;;;;;;;;5.61;91.70;97570.13;1740152;82;20428;-73
2022/02/17 09:09:44;;;;;;;;;;;;;;;5.66;91.41;97562.91;1735558;82;20141;-74
2022/02/17 09:12:13;;;;;;;;;;;;;;;5.73;90.33;97563.17;1736608;82;21151;-75
2022/02/17 09:14:41;;;;;;;;;;;;;;;5.78;89.87;97558.86;1736438;82;20501;-71
2022/02/17 09:17:07;;;;;;;;;;;;;;;5.81;89.09;97546.73;1743552;82;20147;-71
2022/02/17 09:19:34;;;;;;;;;;;;;;;5.85;89.03;97534.05;1745393;82;20107;-72
2022/02/17 09:22:05;;;;;;;;;;;;;;;5.90;88.14;97529.80;1743232;81;20127;-72
2022/02/17 09:24:30;;;;;;;;;;;;;;;5.94;88.74;97526.63;1736411;81;21123;-71
2022/02/17 09:27:10;;;;;;;;;;;;;;;6.01;88.36;97531.55;1732691;83;20344;-73
2022/02/17 09:29:41;;;;;;;;;;;;;;;6.08;88.41;97518.74;1733273;82;20117;-75
2022/02/17 09:32:09;;;;;;;;;;;;;;;6.13;86.54;97502.98;1737181;82;20528;-74
2022/02/17 09:34:34;;;;;;;;;;;;;;;6.15;86.79;97503.45;1738395;82;20072;-74
2022/02/17 09:37:08;;;;;;;;;;;;;;;6.16;86.47;97494.70;1737432;82;21190;-73
2022/02/17 09:39:36;;;;;;;;;;;;;;;6.14;86.40;97486.88;1737557;82;20108;-79
2022/02/17 09:42:07;;;;;;;;;;;;;;;6.13;85.94;97488.00;1739307;82;20110;-78
2022/02/17 09:44:35;;;;;;;;;;;;;;;6.11;85.60;97471.77;1740258;82;20644;-77
2022/02/17 09:47:07;;;;;;;;;;;;;;;6.09;84.92;97452.23;1742681;81;20237;-77
2022/02/17 09:49:37;;;;;;;;;;;;;;;6.09;84.70;97453.59;1745234;81;21163;-79
2022/02/17 09:52:13;;;;;;;;;;;;;;;6.11;84.71;97443.16;1687928;84;20127;-71
2022/02/17 09:54:45;;;;;;;;;;;;;;;6.12;84.24;97445.55;1714012;82;20161;-71
2022/02/17 09:57:17;;;;;;;;;;;;;;;6.12;84.02;97451.00;1701507;83;20089;-72
2022/02/17 09:59:45;;;;;;;;;;;;;;;6.13;83.59;97457.24;1683624;84;20125;-71
2022/02/17 10:02:15;;;;;;;;;;;;;;;6.13;83.95;97458.03;1738296;82;21500;-75
2022/02/17 10:04:45;;;;;;;;;;;;;;;6.14;83.62;97449.30;1741740;82;20466;-74
2022/02/17 10:07:13;;;;;;;;;;;;;;;6.12;83.42;97442.83;1716049;82;20171;-74
2022/02/17 10:09:48;;;;;;;;;;;;;;;6.11;83.52;97448.05;1740725;82;20549;-77
2022/02/17 10:12:13;;;;;;;;;;;;;;;6.11;83.56;97434.42;1741058;82;20108;-74
2022/02/17 10:14:45;;;;;;;;;;;;;;;6.11;84.34;97424.09;1741359;82;21128;-72
2022/02/17 10:17:18;;;;;;;;;;;;;;;6.11;84.39;97420.80;1741604;82;20100;-71
2022/02/17 10:19:47;;;;;;;;;;;;;;;6.10;84.67;97436.92;1740119;82;20120;-70
2022/02/17 10:22:17;;;;;;;;;;;;;;;6.08;84.85;97411.15;1737870;82;20128;-71
2022/02/17 10:24:45;;;;;;;;;;;;;;;6.05;84.88;97406.38;1741514;82;20096;-72
2022/02/17 10:27:26;;;;;;;;;;;;;;;6.00;85.45;97397.05;1739813;82;21136;-70
2022/02/17 10:30:10;;;;;;;;;;;;;;;5.99;86.32;97394.11;1737616;82;20088;-74
2022/02/17 10:32:56;;;;;;;;;;;;;;;5.95;86.50;97393.42;1759994;80;20116;-71
2022/02/17 10:35:29;;;;;;;;;;;;;;;5.93;87.22;97382.06;1759687;80;20431;-74
2022/02/17 10:37:57;;;;;;;;;;;;;;;5.90;87.94;97380.02;1786388;80;20116;-68
2022/02/17 10:40:37;;;;;;;;;;;;;;;5.83;88.50;97368.85;1784399;80;21173;-70
2022/02/17 10:43:10;;;;;;;;;;;;;;;5.78;89.30;97359.54;1788424;80;20431;-69
2022/02/17 10:45:40;;;;;;;;;;;;;;;5.73;90.34;97348.09;1791466;80;20404;-68
2022/02/17 10:48:18;;;;;;;;;;;;;;;5.66;91.16;97343.77;1796045;78;20203;-70
2022/02/17 10:51:07;;;;;;;;;;;;;;;5.60;91.37;97334.45;1792730;78;20467;-69
2022/02/17 10:53:35;;;;;;;;;;;;;;;5.56;91.96;97325.94;1788258;80;22347;-68
2022/02/17 10:56:05;;;;;;;;;;;;;;;5.51;91.28;97320.71;1758017;80;20114;-69
2022/02/17 10:58:38;;;;;;;;;;;;;;;5.50;91.88;97315.84;1759075;80;20094;-76
2022/02/17 11:01:07;;;;;;;;;;;;;;;5.52;91.94;97314.94;1764430;80;20464;-72
2022/02/17 11:03:38;;;;;;;;;;;;;;;5.53;91.25;97308.36;1791844;80;20168;-71
2022/02/17 11:06:07;;;;;;;;;;;;;;;5.55;91.27;97299.29;1791456;79;21251;-71
2022/02/17 11:08:35;;;;;;;;;;;;;;;5.58;90.36;97293.73;1791921;80;20427;-73
2022/02/17 11:11:04;;;;;;;;;;;;;;;5.59;89.97;97290.69;1790831;80;20444;-74
2022/02/17 11:13:33;;;;;;;;;;;;;;;5.59;90.14;97280.36;1791915;80;20134;-76
2022/02/17 11:16:03;;;;;;;;;;;;;;;5.60;89.43;97284.67;1791808;80;20463;-76
2022/02/17 11:18:32;;;;;;;;;;;;;;;5.59;88.70;97287.16;1791665;79;21150;-76
2022/02/17 11:21:02;;;;;;;;;;;;;;;5.58;89.10;97282.29;1791867;79;20401;-80
2022/02/17 11:23:35;;;;;;;;;;;;;;;5.56;88.43;97271.51;1791981;80;20175;-83
2022/02/17 11:26:22;;;;;;;;;;;;;;;5.54;88.33;97261.52;1789693;80;20989;-74
2022/02/17 11:28:51;;;;;;;;;;;;;;;5.51;89.30;97262.20;1791488;79;20166;-74
2022/02/17 11:31:20;;;;;;;;;;;;;;;5.45;89.55;97254.03;1790922;80;21126;-73
2022/02/17 11:33:56;;;;;;;;;;;;;;;5.41;89.08;97253.91;1790752;80;20443;-74
2022/02/17 11:36:30;;;;;;;;;;;;;;;5.39;89.26;97243.13;1763408;80;20142;-74
2022/02/17 11:39:10;;;;;;;;;;;;;;;5.37;89.74;97241.31;1789147;80;20285;-75
2022/02/17 11:41:36;;;;;;;;;;;;;;;5.33;89.66;97243.12;1788939;80;20415;-74
2022/02/17 11:44:13;;;;;;;;;;;;;;;5.30;90.33;97235.86;1792210;80;21165;-75
2022/02/17 11:46:50;;;;;;;;;;;;;;;5.25;90.94;97234.72;1797480;78;20168;-75
2022/02/17 11:49:38;;;;;;;;;;;;;;;5.21;91.15;97226.20;1787867;79;20232;-72
2022/02/17 11:52:15;;;;;;;;;;;;;;;5.17;92.15;97230.19;1768783;80;20431;-72
2022/02/17 11:55:16;;;;;;;;;;;;;;;5.13;92.60;97227.12;1789595;80;20470;-77
2022/02/17 11:57:44;;;;;;;;;;;;;;;5.09;93.49;97209.32;1767503;80;20313;-79
2022/02/17 12:00:28;;;;;;;;;;;;;;;5.01;94.63;97202.61;1789490;80;20993;-81
2022/02/17 12:02:58;;;;;;;;;;;;;;;4.96;95.40;97199.54;1789889;80;20443;-79
2022/02/17 12:05:24;;;;;;;;;;;;;;;4.89;96.46;97189.77;1791228;80;20194;-77
2022/02/17 12:07:52;;;;;;;;;;;;;;;4.84;97.32;97178.55;1786275;78;20096;-78
2022/02/17 12:10:29;;;;;;;;;;;;;;;4.78;97.92;97163.58;1791796;79;21615;-79
2022/02/17 12:12:55;;;;;;;;;;;;;;;4.75;99.08;97172.97;1791027;79;20416;-78
2022/02/17 12:15:25;;;;;;;;;;;;;;;4.69;100.00;97145.77;1789514;79;20260;-76
2022/02/17 12:17:51;;;;;;;;;;;;;;;4.64;100.00;97150.28;1790443;79;20133;-78
2022/02/17 12:20:21;;;;;;;;;;;;;;;4.60;100.00;97141.24;1740365;80;20133;-75
2022/02/17 12:23:08;;;;;;;;;;;;;;;4.56;100.00;97123.23;1790146;79;21232;-78
2022/02/17 12:25:44;;;;;;;;;;;;;;;4.52;100.00;97121.74;1786645;80;20096;-75
2022/02/17 12:28:18;;;;;;;;;;;;;;;4.48;100.00;97108.59;1811037;79;20421;-76
2022/02/17 12:30:49;;;;;;;;;;;;;;;4.43;100.00;97100.66;1810040;79;20469;-72
2022/02/17 12:33:20;;;;;;;;;;;;;;;4.40;100.00;97111.40;1789267;79;20116;-74
2022/02/17 12:35:58;;;;;;;;;;;;;;;4.36;100.00;97109.12;1788120;80;21141;-75
2022/02/17 12:38:28;;;;;;;;;;;;;;;4.31;100.00;97108.20;1788388;80;20092;-74
2022/02/17 12:40:55;;;;;;;;;;;;;;;4.28;100.00;97095.28;1794673;79;20249;-77
2022/02/17 12:43:35;;;;;;;;;;;;;;;4.26;100.00;97091.31;1795432;79;20128;-74
2022/02/17 12:46:07;;;;;;;;;;;;;;;4.22;100.00;97075.45;1791808;79;20085;-74
2022/02/17 12:48:37;;;;;;;;;;;;;;;4.20;100.00;97061.42;1784820;80;21157;-79
2022/02/17 12:51:06;;;;;;;;;;;;;;;4.17;100.00;97042.52;1759196;80;20424;-83
2022/02/17 12:53:52;;;;;;;;;;;;;;;4.12;100.00;97040.57;1783804;80;20112;-80
2022/02/17 12:56:22;;;;;;;;;;;;;;;4.07;100.00;97045.64;1782750;80;20844;-80
2022/02/17 12:58:50;;;;;;;;;;;;;;;4.03;100.00;97029.03;1787234;79;20181;-78
2022/02/17 13:01:24;;;;;;;;;;;;;;;4.02;100.00;97035.02;1783857;80;22157;-75
2022/02/17 13:03:51;;;;;;;;;;;;;;;4.03;100.00;97030.39;1783859;80;20120;-77
2022/02/17 13:06:23;;;;;;;;;;;;;;;4.06;100.00;97037.83;1783554;80;20114;-76
2022/02/17 13:08:56;;;;;;;;;;;;;;;4.08;100.00;97024.72;1761257;80;20180;-76
2022/02/17 13:11:35;;;;;;;;;;;;;;;4.10;100.00;97025.18;1782088;80;20142;-71
2022/02/17 13:14:07;;;;;;;;;;;;;;;4.12;100.00;97020.20;1781817;80;21306;-73
2022/02/17 13:16:44;;;;;;;;;;;;;;;4.13;100.00;97017.16;1789501;79;20112;-77